sensor_id;sensor_type;location;lat;lon;timestamp;temperature;humidity
74511;DHT22;62991;50.040;18.400;2023-10-31T00:02:14;17.20;61.20
74511;DHT22;62991;50.040;18.400;2023-10-31T00:05:14;17.30;61.00
74511;DHT22;62991;50.040;18.400;2023-10-31T00:08:15;17.30;60.80
74511;DHT22;62991;50.040;18.400;2023-10-31T00:11:16;17.30;60.60
74511;DHT22;62991;50.040;18.400;2023-10-31T00:14:17;17.30;60.40
74511;DHT22;62991;50.040;18.400;2023-10-31T00:17:17;17.30;60.00
74511;DHT22;62991;50.040;18.400;2023-10-31T00:20:18;17.30;59.50
74511;DHT22;62991;50.040;18.400;2023-10-31T00:23:22;17.40;59.30
74511;DHT22;62991;50.040;18.400;2023-10-31T00:26:23;17.50;58.80
74511;DHT22;62991;50.040;18.400;2023-10-31T00:29:24;17.50;58.50
74511;DHT22;62991;50.040;18.400;2023-10-31T00:32:24;17.60;58.30
74511;DHT22;62991;50.040;18.400;2023-10-31T00:35:26;17.60;58.50
74511;DHT22;62991;50.040;18.400;2023-10-31T00:38:26;17.60;58.00
74511;DHT22;62991;50.040;18.400;2023-10-31T00:41:27;17.60;57.80
74511;DHT22;62991;50.040;18.400;2023-10-31T00:44:28;17.60;57.80
74511;DHT22;62991;50.040;18.400;2023-10-31T00:47:28;17.50;57.40
74511;DHT22;62991;50.040;18.400;2023-10-31T00:50:29;17.50;56.90
74511;DHT22;62991;50.040;18.400;2023-10-31T00:53:31;17.60;56.40
74511;DHT22;62991;50.040;18.400;2023-10-31T00:56:32;17.70;55.80
74511;DHT22;62991;50.040;18.400;2023-10-31T00:59:33;17.70;55.70
74511;DHT22;62991;50.040;18.400;2023-10-31T01:02:34;17.70;55.30
74511;DHT22;62991;50.040;18.400;2023-10-31T01:05:34;17.80;55.00
74511;DHT22;62991;50.040;18.400;2023-10-31T01:08:35;17.80;54.90
74511;DHT22;62991;50.040;18.400;2023-10-31T01:11:36;17.90;54.50
74511;DHT22;62991;50.040;18.400;2023-10-31T01:14:36;17.90;54.40
74511;DHT22;62991;50.040;18.400;2023-10-31T01:17:37;17.90;54.10
74511;DHT22;62991;50.040;18.400;2023-10-31T01:20:38;18.00;54.20
74511;DHT22;62991;50.040;18.400;2023-10-31T01:23:39;18.00;54.10
74511;DHT22;62991;50.040;18.400;2023-10-31T01:26:40;18.00;55.50
74511;DHT22;62991;50.040;18.400;2023-10-31T01:29:40;17.90;55.70
74511;DHT22;62991;50.040;18.400;2023-10-31T01:32:41;17.80;55.90
74511;DHT22;62991;50.040;18.400;2023-10-31T01:35:42;17.80;55.80
74511;DHT22;62991;50.040;18.400;2023-10-31T01:38:42;17.70;55.70
74511;DHT22;62991;50.040;18.400;2023-10-31T01:41:43;17.70;55.70
74511;DHT22;62991;50.040;18.400;2023-10-31T01:44:44;17.70;55.60
74511;DHT22;62991;50.040;18.400;2023-10-31T01:47:46;17.70;55.50
74511;DHT22;62991;50.040;18.400;2023-10-31T01:50:48;17.60;55.60
74511;DHT22;62991;50.040;18.400;2023-10-31T01:53:48;17.60;55.50
74511;DHT22;62991;50.040;18.400;2023-10-31T01:56:49;17.60;55.40
74511;DHT22;62991;50.040;18.400;2023-10-31T01:59:53;17.50;55.10
74511;DHT22;62991;50.040;18.400;2023-10-31T02:02:55;17.50;55.20
74511;DHT22;62991;50.040;18.400;2023-10-31T02:05:57;17.50;55.10
74511;DHT22;62991;50.040;18.400;2023-10-31T02:08:58;17.60;54.80
74511;DHT22;62991;50.040;18.400;2023-10-31T02:11:58;17.60;54.70
74511;DHT22;62991;50.040;18.400;2023-10-31T02:14:59;17.60;54.50
74511;DHT22;62991;50.040;18.400;2023-10-31T02:18:00;17.60;54.30
74511;DHT22;62991;50.040;18.400;2023-10-31T02:21:01;17.70;54.40
74511;DHT22;62991;50.040;18.400;2023-10-31T02:24:02;17.70;54.40
74511;DHT22;62991;50.040;18.400;2023-10-31T02:27:03;17.70;54.40
74511;DHT22;62991;50.040;18.400;2023-10-31T02:30:04;17.70;54.30
74511;DHT22;62991;50.040;18.400;2023-10-31T02:33:05;17.70;54.20
74511;DHT22;62991;50.040;18.400;2023-10-31T02:36:06;17.70;54.00
74511;DHT22;62991;50.040;18.400;2023-10-31T02:39:07;17.70;53.90
74511;DHT22;62991;50.040;18.400;2023-10-31T02:42:08;17.70;54.00
74511;DHT22;62991;50.040;18.400;2023-10-31T02:45:09;17.80;53.50
74511;DHT22;62991;50.040;18.400;2023-10-31T02:48:09;17.90;53.10
74511;DHT22;62991;50.040;18.400;2023-10-31T02:51:11;17.90;53.00
74511;DHT22;62991;50.040;18.400;2023-10-31T02:54:11;18.00;52.90
74511;DHT22;62991;50.040;18.400;2023-10-31T02:57:12;18.00;52.50
74511;DHT22;62991;50.040;18.400;2023-10-31T03:00:13;18.10;52.60
74511;DHT22;62991;50.040;18.400;2023-10-31T03:03:14;18.20;52.40
74511;DHT22;62991;50.040;18.400;2023-10-31T03:06:15;18.20;52.20
74511;DHT22;62991;50.040;18.400;2023-10-31T03:09:15;18.20;52.40
74511;DHT22;62991;50.040;18.400;2023-10-31T03:12:16;18.20;52.10
74511;DHT22;62991;50.040;18.400;2023-10-31T03:15:17;18.30;51.70
74511;DHT22;62991;50.040;18.400;2023-10-31T03:18:17;18.40;52.00
74511;DHT22;62991;50.040;18.400;2023-10-31T03:21:18;18.30;51.80
74511;DHT22;62991;50.040;18.400;2023-10-31T03:24:19;18.30;51.80
74511;DHT22;62991;50.040;18.400;2023-10-31T03:27:20;18.40;51.90
74511;DHT22;62991;50.040;18.400;2023-10-31T03:30:20;18.40;51.60
74511;DHT22;62991;50.040;18.400;2023-10-31T03:33:23;18.40;51.60
74511;DHT22;62991;50.040;18.400;2023-10-31T03:36:24;18.40;51.60
74511;DHT22;62991;50.040;18.400;2023-10-31T03:39:25;18.40;51.50
74511;DHT22;62991;50.040;18.400;2023-10-31T03:42:25;18.40;51.50
74511;DHT22;62991;50.040;18.400;2023-10-31T03:45:26;18.40;51.30
74511;DHT22;62991;50.040;18.400;2023-10-31T03:48:27;18.50;51.20
74511;DHT22;62991;50.040;18.400;2023-10-31T03:51:28;18.50;51.00
74511;DHT22;62991;50.040;18.400;2023-10-31T03:54:28;18.50;51.40
74511;DHT22;62991;50.040;18.400;2023-10-31T03:57:29;18.40;51.30
74511;DHT22;62991;50.040;18.400;2023-10-31T04:00:29;18.40;51.20
74511;DHT22;62991;50.040;18.400;2023-10-31T04:03:30;18.40;51.30
74511;DHT22;62991;50.040;18.400;2023-10-31T04:06:31;18.40;51.20
74511;DHT22;62991;50.040;18.400;2023-10-31T04:09:31;18.50;50.90
74511;DHT22;62991;50.040;18.400;2023-10-31T04:12:32;18.50;50.90
74511;DHT22;62991;50.040;18.400;2023-10-31T04:15:33;18.50;50.70
74511;DHT22;62991;50.040;18.400;2023-10-31T04:18:36;18.50;50.60
74511;DHT22;62991;50.040;18.400;2023-10-31T04:21:36;18.60;50.60
74511;DHT22;62991;50.040;18.400;2023-10-31T04:24:37;18.50;50.20
74511;DHT22;62991;50.040;18.400;2023-10-31T04:27:38;18.60;50.30
74511;DHT22;62991;50.040;18.400;2023-10-31T04:30:38;18.60;50.20
74511;DHT22;62991;50.040;18.400;2023-10-31T04:33:39;18.60;50.40
74511;DHT22;62991;50.040;18.400;2023-10-31T04:36:40;18.60;50.40
74511;DHT22;62991;50.040;18.400;2023-10-31T04:39:40;18.60;50.50
74511;DHT22;62991;50.040;18.400;2023-10-31T04:42:41;18.60;50.60
74511;DHT22;62991;50.040;18.400;2023-10-31T04:45:42;18.70;50.40
74511;DHT22;62991;50.040;18.400;2023-10-31T04:48:43;18.70;50.60
74511;DHT22;62991;50.040;18.400;2023-10-31T04:51:44;18.70;50.70
74511;DHT22;62991;50.040;18.400;2023-10-31T04:54:45;18.70;50.80
74511;DHT22;62991;50.040;18.400;2023-10-31T04:57:45;18.70;50.50
74511;DHT22;62991;50.040;18.400;2023-10-31T05:00:47;18.70;50.20
74511;DHT22;62991;50.040;18.400;2023-10-31T05:03:47;18.70;50.40
74511;DHT22;62991;50.040;18.400;2023-10-31T05:06:48;18.70;50.20
74511;DHT22;62991;50.040;18.400;2023-10-31T05:09:49;18.70;49.90
74511;DHT22;62991;50.040;18.400;2023-10-31T05:12:49;18.70;49.50
74511;DHT22;62991;50.040;18.400;2023-10-31T05:15:51;18.70;49.80
74511;DHT22;62991;50.040;18.400;2023-10-31T05:18:52;18.70;50.10
74511;DHT22;62991;50.040;18.400;2023-10-31T05:21:53;18.70;49.30
74511;DHT22;62991;50.040;18.400;2023-10-31T05:24:53;18.70;49.30
74511;DHT22;62991;50.040;18.400;2023-10-31T05:27:54;18.70;48.80
74511;DHT22;62991;50.040;18.400;2023-10-31T05:30:55;18.80;48.90
74511;DHT22;62991;50.040;18.400;2023-10-31T05:33:55;18.80;48.90
74511;DHT22;62991;50.040;18.400;2023-10-31T05:36:56;18.90;48.60
74511;DHT22;62991;50.040;18.400;2023-10-31T05:39:57;18.90;48.60
74511;DHT22;62991;50.040;18.400;2023-10-31T05:42:57;18.80;48.70
74511;DHT22;62991;50.040;18.400;2023-10-31T05:45:58;18.90;49.00
74511;DHT22;62991;50.040;18.400;2023-10-31T05:48:59;18.90;49.40
74511;DHT22;62991;50.040;18.400;2023-10-31T05:52:00;18.90;49.70
74511;DHT22;62991;50.040;18.400;2023-10-31T05:55:00;18.80;49.80
74511;DHT22;62991;50.040;18.400;2023-10-31T05:58:01;18.80;50.10
74511;DHT22;62991;50.040;18.400;2023-10-31T06:01:02;18.70;50.30
74511;DHT22;62991;50.040;18.400;2023-10-31T06:04:03;18.60;50.80
74511;DHT22;62991;50.040;18.400;2023-10-31T06:07:04;18.50;51.40
74511;DHT22;62991;50.040;18.400;2023-10-31T06:10:05;18.40;51.50
74511;DHT22;62991;50.040;18.400;2023-10-31T06:13:06;18.30;52.40
74511;DHT22;62991;50.040;18.400;2023-10-31T06:16:07;18.20;52.60
74511;DHT22;62991;50.040;18.400;2023-10-31T06:19:08;18.10;52.90
74511;DHT22;62991;50.040;18.400;2023-10-31T06:22:09;17.90;53.30
74511;DHT22;62991;50.040;18.400;2023-10-31T06:25:10;17.80;53.90
74511;DHT22;62991;50.040;18.400;2023-10-31T06:28:10;17.80;54.00
74511;DHT22;62991;50.040;18.400;2023-10-31T06:31:11;17.70;54.10
74511;DHT22;62991;50.040;18.400;2023-10-31T06:34:12;17.70;53.60
74511;DHT22;62991;50.040;18.400;2023-10-31T06:37:12;17.60;54.20
74511;DHT22;62991;50.040;18.400;2023-10-31T06:40:13;17.50;54.20
74511;DHT22;62991;50.040;18.400;2023-10-31T06:43:14;17.40;54.60
74511;DHT22;62991;50.040;18.400;2023-10-31T06:46:15;17.40;54.60
74511;DHT22;62991;50.040;18.400;2023-10-31T06:49:16;17.30;54.20
74511;DHT22;62991;50.040;18.400;2023-10-31T06:52:17;17.30;55.00
74511;DHT22;62991;50.040;18.400;2023-10-31T06:55:17;17.30;55.20
74511;DHT22;62991;50.040;18.400;2023-10-31T06:58:18;17.20;55.20
74511;DHT22;62991;50.040;18.400;2023-10-31T07:01:19;17.10;55.30
74511;DHT22;62991;50.040;18.400;2023-10-31T07:04:19;17.10;55.50
74511;DHT22;62991;50.040;18.400;2023-10-31T07:07:20;17.10;55.60
74511;DHT22;62991;50.040;18.400;2023-10-31T07:10:21;16.90;55.30
74511;DHT22;62991;50.040;18.400;2023-10-31T07:13:22;16.80;55.80
74511;DHT22;62991;50.040;18.400;2023-10-31T07:16:23;16.80;55.70
74511;DHT22;62991;50.040;18.400;2023-10-31T07:19:23;16.70;55.90
74511;DHT22;62991;50.040;18.400;2023-10-31T07:22:24;16.60;56.10
74511;DHT22;62991;50.040;18.400;2023-10-31T07:25:25;16.50;56.40
74511;DHT22;62991;50.040;18.400;2023-10-31T07:28:26;16.40;56.60
74511;DHT22;62991;50.040;18.400;2023-10-31T07:31:26;16.40;57.00
74511;DHT22;62991;50.040;18.400;2023-10-31T07:34:29;16.40;56.70
74511;DHT22;62991;50.040;18.400;2023-10-31T07:37:30;16.40;56.90
74511;DHT22;62991;50.040;18.400;2023-10-31T07:40:30;16.30;56.90
74511;DHT22;62991;50.040;18.400;2023-10-31T07:43:31;16.30;57.00
74511;DHT22;62991;50.040;18.400;2023-10-31T07:46:31;16.20;57.10
74511;DHT22;62991;50.040;18.400;2023-10-31T07:49:34;16.30;57.30
74511;DHT22;62991;50.040;18.400;2023-10-31T07:52:34;16.20;57.80
74511;DHT22;62991;50.040;18.400;2023-10-31T07:55:35;16.20;58.10
74511;DHT22;62991;50.040;18.400;2023-10-31T07:58:36;16.10;58.30
74511;DHT22;62991;50.040;18.400;2023-10-31T08:01:36;16.10;58.40
74511;DHT22;62991;50.040;18.400;2023-10-31T08:04:37;16.10;58.50
74511;DHT22;62991;50.040;18.400;2023-10-31T08:07:38;16.10;59.00
74511;DHT22;62991;50.040;18.400;2023-10-31T08:10:38;16.00;59.30
74511;DHT22;62991;50.040;18.400;2023-10-31T08:13:40;16.00;59.50
74511;DHT22;62991;50.040;18.400;2023-10-31T08:16:40;16.00;59.70
74511;DHT22;62991;50.040;18.400;2023-10-31T08:19:41;15.80;61.30
74511;DHT22;62991;50.040;18.400;2023-10-31T08:22:42;15.60;63.40
74511;DHT22;62991;50.040;18.400;2023-10-31T08:25:43;15.60;64.30
74511;DHT22;62991;50.040;18.400;2023-10-31T08:28:44;15.60;64.80
74511;DHT22;62991;50.040;18.400;2023-10-31T08:31:45;15.50;65.80
74511;DHT22;62991;50.040;18.400;2023-10-31T08:34:45;15.50;66.60
74511;DHT22;62991;50.040;18.400;2023-10-31T08:37:46;15.40;66.90
74511;DHT22;62991;50.040;18.400;2023-10-31T08:40:47;15.40;67.30
74511;DHT22;62991;50.040;18.400;2023-10-31T08:43:49;15.40;67.80
74511;DHT22;62991;50.040;18.400;2023-10-31T08:46:50;15.40;68.10
74511;DHT22;62991;50.040;18.400;2023-10-31T08:49:50;15.40;68.30
74511;DHT22;62991;50.040;18.400;2023-10-31T08:52:51;15.30;68.80
74511;DHT22;62991;50.040;18.400;2023-10-31T08:55:52;15.40;68.50
74511;DHT22;62991;50.040;18.400;2023-10-31T08:58:53;15.50;68.30
74511;DHT22;62991;50.040;18.400;2023-10-31T09:01:54;15.60;68.00
74511;DHT22;62991;50.040;18.400;2023-10-31T09:04:54;15.50;68.40
74511;DHT22;62991;50.040;18.400;2023-10-31T09:07:55;15.50;68.30
74511;DHT22;62991;50.040;18.400;2023-10-31T09:10:56;15.40;68.50
74511;DHT22;62991;50.040;18.400;2023-10-31T09:13:56;15.30;68.90
74511;DHT22;62991;50.040;18.400;2023-10-31T09:16:57;15.30;68.90
74511;DHT22;62991;50.040;18.400;2023-10-31T09:19:58;15.30;69.10
74511;DHT22;62991;50.040;18.400;2023-10-31T09:22:59;15.30;69.50
74511;DHT22;62991;50.040;18.400;2023-10-31T09:26:00;15.30;69.40
74511;DHT22;62991;50.040;18.400;2023-10-31T09:29:01;15.30;69.50
74511;DHT22;62991;50.040;18.400;2023-10-31T09:32:02;15.50;68.90
74511;DHT22;62991;50.040;18.400;2023-10-31T09:35:02;15.60;68.50
74511;DHT22;62991;50.040;18.400;2023-10-31T09:38:03;15.50;68.50
74511;DHT22;62991;50.040;18.400;2023-10-31T09:41:04;15.60;68.80
74511;DHT22;62991;50.040;18.400;2023-10-31T09:44:05;15.60;68.70
74511;DHT22;62991;50.040;18.400;2023-10-31T09:47:06;15.50;69.10
74511;DHT22;62991;50.040;18.400;2023-10-31T09:50:07;15.50;69.10
74511;DHT22;62991;50.040;18.400;2023-10-31T09:53:10;15.60;68.90
74511;DHT22;62991;50.040;18.400;2023-10-31T09:56:11;15.60;69.00
74511;DHT22;62991;50.040;18.400;2023-10-31T09:59:14;15.70;69.00
74511;DHT22;62991;50.040;18.400;2023-10-31T10:02:16;15.80;68.80
74511;DHT22;62991;50.040;18.400;2023-10-31T10:05:16;15.80;68.70
74511;DHT22;62991;50.040;18.400;2023-10-31T10:08:19;15.80;68.70
74511;DHT22;62991;50.040;18.400;2023-10-31T10:11:20;15.80;68.80
74511;DHT22;62991;50.040;18.400;2023-10-31T10:14:26;15.80;68.80
74511;DHT22;62991;50.040;18.400;2023-10-31T10:17:32;15.90;68.30
74511;DHT22;62991;50.040;18.400;2023-10-31T10:20:33;15.80;68.00
74511;DHT22;62991;50.040;18.400;2023-10-31T10:23:35;15.70;68.50
74511;DHT22;62991;50.040;18.400;2023-10-31T10:26:35;15.70;68.90
74511;DHT22;62991;50.040;18.400;2023-10-31T10:29:38;15.80;68.60
74511;DHT22;62991;50.040;18.400;2023-10-31T10:32:39;15.90;68.40
74511;DHT22;62991;50.040;18.400;2023-10-31T10:35:40;15.80;67.90
74511;DHT22;62991;50.040;18.400;2023-10-31T10:38:42;15.80;68.10
74511;DHT22;62991;50.040;18.400;2023-10-31T10:41:48;15.80;68.60
74511;DHT22;62991;50.040;18.400;2023-10-31T10:44:52;15.80;68.30
74511;DHT22;62991;50.040;18.400;2023-10-31T10:47:58;15.90;68.00
74511;DHT22;62991;50.040;18.400;2023-10-31T10:54:26;16.00;67.40
74511;DHT22;62991;50.040;18.400;2023-10-31T11:00:40;15.80;68.30
74511;DHT22;62991;50.040;18.400;2023-10-31T11:03:42;15.60;68.30
74511;DHT22;62991;50.040;18.400;2023-10-31T11:06:43;15.70;68.80
74511;DHT22;62991;50.040;18.400;2023-10-31T11:09:45;15.60;69.30
74511;DHT22;62991;50.040;18.400;2023-10-31T11:12:47;15.50;69.80
74511;DHT22;62991;50.040;18.400;2023-10-31T11:15:52;15.60;69.70
74511;DHT22;62991;50.040;18.400;2023-10-31T11:18:54;15.60;69.90
74511;DHT22;62991;50.040;18.400;2023-10-31T11:22:00;15.60;70.20
74511;DHT22;62991;50.040;18.400;2023-10-31T11:25:00;15.60;69.70
74511;DHT22;62991;50.040;18.400;2023-10-31T11:28:13;15.70;69.30
74511;DHT22;62991;50.040;18.400;2023-10-31T11:31:14;15.70;69.50
74511;DHT22;62991;50.040;18.400;2023-10-31T11:34:18;15.70;69.50
74511;DHT22;62991;50.040;18.400;2023-10-31T11:37:33;15.60;69.70
74511;DHT22;62991;50.040;18.400;2023-10-31T11:43:50;15.50;70.00
74511;DHT22;62991;50.040;18.400;2023-10-31T11:46:51;15.40;70.50
74511;DHT22;62991;50.040;18.400;2023-10-31T11:49:52;15.40;70.20
74511;DHT22;62991;50.040;18.400;2023-10-31T11:53:01;15.40;70.20
74511;DHT22;62991;50.040;18.400;2023-10-31T11:56:03;15.50;70.30
74511;DHT22;62991;50.040;18.400;2023-10-31T11:59:05;15.40;70.40
74511;DHT22;62991;50.040;18.400;2023-10-31T12:02:14;15.40;70.40
74511;DHT22;62991;50.040;18.400;2023-10-31T12:05:15;15.40;70.50
74511;DHT22;62991;50.040;18.400;2023-10-31T12:08:34;15.50;70.20
74511;DHT22;62991;50.040;18.400;2023-10-31T12:11:44;15.50;70.40
74511;DHT22;62991;50.040;18.400;2023-10-31T12:14:44;15.50;70.00
74511;DHT22;62991;50.040;18.400;2023-10-31T12:17:45;15.50;69.80
74511;DHT22;62991;50.040;18.400;2023-10-31T12:20:50;15.40;70.10
74511;DHT22;62991;50.040;18.400;2023-10-31T12:23:51;15.40;70.00
74511;DHT22;62991;50.040;18.400;2023-10-31T12:26:53;15.40;70.30
74511;DHT22;62991;50.040;18.400;2023-10-31T12:30:00;15.30;70.10
74511;DHT22;62991;50.040;18.400;2023-10-31T12:33:02;15.10;70.70
74511;DHT22;62991;50.040;18.400;2023-10-31T12:36:03;15.20;70.50
74511;DHT22;62991;50.040;18.400;2023-10-31T12:39:07;15.20;70.90
74511;DHT22;62991;50.040;18.400;2023-10-31T12:42:08;15.20;70.50
74511;DHT22;62991;50.040;18.400;2023-10-31T12:45:09;15.10;70.70
74511;DHT22;62991;50.040;18.400;2023-10-31T12:48:10;15.00;71.20
74511;DHT22;62991;50.040;18.400;2023-10-31T12:51:12;15.10;71.10
74511;DHT22;62991;50.040;18.400;2023-10-31T12:54:27;15.00;71.80
74511;DHT22;62991;50.040;18.400;2023-10-31T12:57:28;15.00;71.70
74511;DHT22;62991;50.040;18.400;2023-10-31T13:00:33;15.00;71.50
74511;DHT22;62991;50.040;18.400;2023-10-31T13:03:48;15.10;71.60
74511;DHT22;62991;50.040;18.400;2023-10-31T13:07:03;15.10;71.40
74511;DHT22;62991;50.040;18.400;2023-10-31T13:10:05;15.10;71.80
74511;DHT22;62991;50.040;18.400;2023-10-31T13:13:06;14.80;72.50
74511;DHT22;62991;50.040;18.400;2023-10-31T13:16:07;14.70;73.50
74511;DHT22;62991;50.040;18.400;2023-10-31T13:19:07;14.80;73.90
74511;DHT22;62991;50.040;18.400;2023-10-31T13:22:08;14.70;74.10
74511;DHT22;62991;50.040;18.400;2023-10-31T13:25:10;14.70;74.60
74511;DHT22;62991;50.040;18.400;2023-10-31T13:28:11;14.70;74.60
74511;DHT22;62991;50.040;18.400;2023-10-31T13:31:13;14.70;74.90
74511;DHT22;62991;50.040;18.400;2023-10-31T13:34:15;14.70;75.20
74511;DHT22;62991;50.040;18.400;2023-10-31T13:37:15;14.60;75.30
74511;DHT22;62991;50.040;18.400;2023-10-31T13:40:16;14.70;75.50
74511;DHT22;62991;50.040;18.400;2023-10-31T13:43:17;14.50;75.50
74511;DHT22;62991;50.040;18.400;2023-10-31T13:46:18;14.60;75.50
74511;DHT22;62991;50.040;18.400;2023-10-31T13:49:18;14.40;76.80
74511;DHT22;62991;50.040;18.400;2023-10-31T13:52:19;14.30;76.70
74511;DHT22;62991;50.040;18.400;2023-10-31T13:55:20;14.30;76.90
74511;DHT22;62991;50.040;18.400;2023-10-31T13:58:21;14.20;76.50
74511;DHT22;62991;50.040;18.400;2023-10-31T14:01:21;13.90;77.40
74511;DHT22;62991;50.040;18.400;2023-10-31T14:04:25;13.90;77.80
74511;DHT22;62991;50.040;18.400;2023-10-31T14:07:26;13.80;78.30
74511;DHT22;62991;50.040;18.400;2023-10-31T14:10:26;13.90;78.40
74511;DHT22;62991;50.040;18.400;2023-10-31T14:13:27;13.80;78.00
74511;DHT22;62991;50.040;18.400;2023-10-31T14:16:31;13.60;79.10
74511;DHT22;62991;50.040;18.400;2023-10-31T14:19:32;13.50;78.90
74511;DHT22;62991;50.040;18.400;2023-10-31T14:22:33;13.50;78.50
74511;DHT22;62991;50.040;18.400;2023-10-31T14:25:34;13.50;79.00
74511;DHT22;62991;50.040;18.400;2023-10-31T14:28:34;13.20;78.40
74511;DHT22;62991;50.040;18.400;2023-10-31T14:31:41;13.20;79.30
74511;DHT22;62991;50.040;18.400;2023-10-31T14:34:42;13.30;78.70
74511;DHT22;62991;50.040;18.400;2023-10-31T14:37:43;13.10;79.40
74511;DHT22;62991;50.040;18.400;2023-10-31T14:40:44;13.10;78.20
74511;DHT22;62991;50.040;18.400;2023-10-31T14:43:45;12.90;79.20
74511;DHT22;62991;50.040;18.400;2023-10-31T14:46:45;12.80;79.90
74511;DHT22;62991;50.040;18.400;2023-10-31T14:49:46;12.90;79.30
74511;DHT22;62991;50.040;18.400;2023-10-31T14:52:47;13.00;79.00
74511;DHT22;62991;50.040;18.400;2023-10-31T14:55:48;13.10;78.80
74511;DHT22;62991;50.040;18.400;2023-10-31T14:58:48;12.90;79.20
74511;DHT22;62991;50.040;18.400;2023-10-31T15:01:49;13.00;79.40
74511;DHT22;62991;50.040;18.400;2023-10-31T15:04:50;13.00;79.30
74511;DHT22;62991;50.040;18.400;2023-10-31T15:07:50;13.00;79.30
74511;DHT22;62991;50.040;18.400;2023-10-31T15:10:52;13.00;79.40
74511;DHT22;62991;50.040;18.400;2023-10-31T15:13:55;12.90;79.50
74511;DHT22;62991;50.040;18.400;2023-10-31T15:16:56;12.90;79.80
74511;DHT22;62991;50.040;18.400;2023-10-31T15:19:56;12.90;80.10
74511;DHT22;62991;50.040;18.400;2023-10-31T15:22:57;12.80;80.30
74511;DHT22;62991;50.040;18.400;2023-10-31T15:25:58;12.80;79.80
74511;DHT22;62991;50.040;18.400;2023-10-31T15:28:59;12.80;80.10
74511;DHT22;62991;50.040;18.400;2023-10-31T15:31:59;12.80;80.60
74511;DHT22;62991;50.040;18.400;2023-10-31T15:35:00;12.80;80.40
74511;DHT22;62991;50.040;18.400;2023-10-31T15:38:02;13.00;80.40
74511;DHT22;62991;50.040;18.400;2023-10-31T15:41:02;13.10;79.60
74511;DHT22;62991;50.040;18.400;2023-10-31T15:44:03;12.90;79.90
74511;DHT22;62991;50.040;18.400;2023-10-31T15:47:05;12.90;79.30
74511;DHT22;62991;50.040;18.400;2023-10-31T15:50:06;12.90;79.90
74511;DHT22;62991;50.040;18.400;2023-10-31T15:53:07;12.90;79.60
74511;DHT22;62991;50.040;18.400;2023-10-31T15:56:08;13.00;78.90
74511;DHT22;62991;50.040;18.400;2023-10-31T15:59:10;13.10;78.50
74511;DHT22;62991;50.040;18.400;2023-10-31T16:02:10;13.10;77.80
74511;DHT22;62991;50.040;18.400;2023-10-31T16:05:11;13.00;78.10
74511;DHT22;62991;50.040;18.400;2023-10-31T16:08:12;13.00;78.10
74511;DHT22;62991;50.040;18.400;2023-10-31T16:11:12;13.00;78.20
74511;DHT22;62991;50.040;18.400;2023-10-31T16:14:13;12.90;78.80
74511;DHT22;62991;50.040;18.400;2023-10-31T16:17:14;12.90;78.20
74511;DHT22;62991;50.040;18.400;2023-10-31T16:20:15;12.80;78.50
74511;DHT22;62991;50.040;18.400;2023-10-31T16:23:16;12.80;78.10
74511;DHT22;62991;50.040;18.400;2023-10-31T16:26:19;12.80;77.90
74511;DHT22;62991;50.040;18.400;2023-10-31T16:29:20;12.60;78.00
74511;DHT22;62991;50.040;18.400;2023-10-31T16:32:21;12.50;78.20
74511;DHT22;62991;50.040;18.400;2023-10-31T16:35:21;12.40;78.60
74511;DHT22;62991;50.040;18.400;2023-10-31T16:38:22;12.40;78.60
74511;DHT22;62991;50.040;18.400;2023-10-31T16:41:23;12.20;79.60
74511;DHT22;62991;50.040;18.400;2023-10-31T16:44:24;12.20;79.60
74511;DHT22;62991;50.040;18.400;2023-10-31T16:47:25;12.00;79.10
74511;DHT22;62991;50.040;18.400;2023-10-31T16:50:26;11.90;79.80
74511;DHT22;62991;50.040;18.400;2023-10-31T16:53:29;11.90;79.80
74511;DHT22;62991;50.040;18.400;2023-10-31T16:56:30;11.70;79.30
74511;DHT22;62991;50.040;18.400;2023-10-31T16:59:31;11.60;79.80
74511;DHT22;62991;50.040;18.400;2023-10-31T17:02:32;11.50;80.10
74511;DHT22;62991;50.040;18.400;2023-10-31T17:05:32;11.30;80.50
74511;DHT22;62991;50.040;18.400;2023-10-31T17:08:33;11.30;80.70
74511;DHT22;62991;50.040;18.400;2023-10-31T17:11:34;11.20;80.70
74511;DHT22;62991;50.040;18.400;2023-10-31T17:14:34;11.20;81.60
74511;DHT22;62991;50.040;18.400;2023-10-31T17:17:35;11.20;80.60
74511;DHT22;62991;50.040;18.400;2023-10-31T17:20:36;11.10;81.30
74511;DHT22;62991;50.040;18.400;2023-10-31T17:23:37;10.90;81.90
74511;DHT22;62991;50.040;18.400;2023-10-31T17:26:39;10.90;81.70
74511;DHT22;62991;50.040;18.400;2023-10-31T17:29:39;10.80;82.00
74511;DHT22;62991;50.040;18.400;2023-10-31T17:32:40;10.80;81.80
74511;DHT22;62991;50.040;18.400;2023-10-31T17:35:41;10.80;81.90
74511;DHT22;62991;50.040;18.400;2023-10-31T17:38:42;10.60;82.10
74511;DHT22;62991;50.040;18.400;2023-10-31T17:41:42;10.80;81.90
74511;DHT22;62991;50.040;18.400;2023-10-31T17:44:43;10.70;81.90
74511;DHT22;62991;50.040;18.400;2023-10-31T17:47:44;10.70;81.80
74511;DHT22;62991;50.040;18.400;2023-10-31T17:50:45;10.80;82.10
74511;DHT22;62991;50.040;18.400;2023-10-31T17:53:46;10.80;81.60
74511;DHT22;62991;50.040;18.400;2023-10-31T17:56:48;10.60;82.10
74511;DHT22;62991;50.040;18.400;2023-10-31T17:59:52;10.60;81.90
74511;DHT22;62991;50.040;18.400;2023-10-31T18:02:53;10.50;82.10
74511;DHT22;62991;50.040;18.400;2023-10-31T18:05:58;10.50;82.30
74511;DHT22;62991;50.040;18.400;2023-10-31T18:08:59;10.50;82.40
74511;DHT22;62991;50.040;18.400;2023-10-31T18:11:59;10.30;82.10
74511;DHT22;62991;50.040;18.400;2023-10-31T18:15:00;10.30;82.90
74511;DHT22;62991;50.040;18.400;2023-10-31T18:18:01;10.20;83.10
74511;DHT22;62991;50.040;18.400;2023-10-31T18:21:02;10.10;82.90
74511;DHT22;62991;50.040;18.400;2023-10-31T18:24:03;10.10;83.10
74511;DHT22;62991;50.040;18.400;2023-10-31T18:27:04;10.20;82.80
74511;DHT22;62991;50.040;18.400;2023-10-31T18:30:07;10.20;82.90
74511;DHT22;62991;50.040;18.400;2023-10-31T18:33:08;10.30;82.80
74511;DHT22;62991;50.040;18.400;2023-10-31T18:36:09;10.20;82.80
74511;DHT22;62991;50.040;18.400;2023-10-31T18:39:10;10.10;83.10
74511;DHT22;62991;50.040;18.400;2023-10-31T18:42:11;10.10;82.90
74511;DHT22;62991;50.040;18.400;2023-10-31T18:45:12;10.10;83.20
74511;DHT22;62991;50.040;18.400;2023-10-31T18:48:14;10.20;83.10
74511;DHT22;62991;50.040;18.400;2023-10-31T18:51:17;10.10;83.20
74511;DHT22;62991;50.040;18.400;2023-10-31T18:54:18;10.20;83.40
74511;DHT22;62991;50.040;18.400;2023-10-31T18:57:20;10.10;82.80